createdAt,value
2019-02-19T18:35:55.051Z,5.87
2019-02-19T18:38:24.802Z,4.67
2019-02-19T18:40:56.901Z,3.83
2019-02-19T18:43:26.440Z,5.15
2019-02-19T18:45:56.474Z,6.75
2019-02-19T18:48:26.115Z,9.03
2019-02-19T18:50:58.440Z,6.33
2019-02-19T18:53:27.343Z,6.47
2019-02-19T18:55:56.991Z,5.75
2019-02-19T18:58:26.504Z,4.25
2019-02-19T19:00:56.093Z,10.28
2019-02-19T19:03:25.674Z,4.53
2019-02-19T19:05:55.182Z,12.63
2019-02-19T19:08:24.801Z,8.23
2019-02-19T19:10:54.327Z,9.50
2019-02-19T19:13:23.964Z,2.90
2019-02-19T19:15:53.561Z,6.58
2019-02-19T19:18:23.116Z,4.60
2019-02-19T19:20:52.666Z,4.78
2019-02-19T19:23:22.350Z,7.20
2019-02-19T19:25:51.958Z,7.33
2019-02-19T19:28:21.589Z,6.72
2019-02-19T19:30:51.326Z,7.47
2019-02-19T19:33:20.942Z,8.48
2019-02-19T19:35:50.516Z,4.62
2019-02-19T19:38:20.242Z,8.25
2019-02-19T19:40:49.754Z,4.37
2019-02-19T19:43:19.261Z,27.67
2019-02-19T19:45:48.857Z,19.48
2019-02-19T19:48:18.491Z,42.65
2019-02-19T19:50:47.999Z,38.15
2019-02-19T19:53:17.621Z,33.53
2019-02-19T19:55:47.143Z,33.10
2019-02-19T19:58:16.651Z,41.88
2019-02-19T20:00:46.324Z,35.78
2019-02-19T20:03:15.843Z,30.27
2019-02-19T20:05:45.455Z,36.38
2019-02-19T20:08:15.032Z,29.40
2019-02-19T20:10:44.678Z,27.60
2019-02-19T20:13:15.282Z,31.12
2019-02-19T20:15:44.810Z,30.05
2019-02-19T20:18:14.445Z,33.83
2019-02-19T20:20:44.155Z,27.90
2019-02-19T20:23:13.705Z,29.35
2019-02-19T20:25:43.331Z,25.60
2019-02-19T20:28:12.989Z,23.80
2019-02-19T20:30:42.643Z,25.60
2019-02-19T20:33:12.274Z,27.58
2019-02-19T20:35:41.803Z,20.02
2019-02-19T20:38:12.415Z,18.80
2019-02-19T20:40:42.038Z,18.17
2019-02-19T20:43:12.521Z,25.77
2019-02-19T20:45:42.216Z,21.82
2019-02-19T20:48:11.722Z,21.85
2019-02-19T20:50:41.277Z,23.05
2019-02-19T20:53:10.834Z,19.60
2019-02-19T20:55:40.373Z,19.60
2019-02-19T20:58:09.902Z,27.17
2019-02-19T21:00:39.447Z,18.85
2019-02-19T21:03:09.148Z,20.20
2019-02-19T21:05:38.712Z,29.63
2019-02-19T21:08:08.232Z,18.85
2019-02-19T21:10:37.807Z,24.52
2019-02-19T21:13:07.300Z,17.40
2019-02-19T21:15:37.592Z,18.45
2019-02-19T21:18:07.103Z,19.35
2019-02-19T21:20:36.621Z,20.72
2019-02-19T21:23:06.183Z,17.05
2019-02-19T21:25:35.635Z,17.95
2019-02-19T21:28:05.170Z,20.20
2019-02-19T21:30:34.686Z,12.05
2019-02-19T21:33:04.398Z,15.38
2019-02-19T21:35:34.591Z,12.85
2019-02-19T21:38:04.985Z,12.55
2019-02-19T21:40:35.426Z,11.83
2019-02-19T21:43:05.829Z,10.98
2019-02-19T21:45:35.853Z,10.82
2019-02-19T21:48:06.117Z,9.70
2019-02-19T21:50:36.390Z,10.95
2019-02-19T21:53:06.732Z,19.02
2019-02-19T21:55:37.095Z,16.52
2019-02-19T21:58:06.549Z,13.35
2019-02-19T22:00:37.430Z,18.82
2019-02-19T22:03:07.025Z,12.47
2019-02-19T22:05:36.590Z,11.20
2019-02-19T22:08:06.233Z,10.15
2019-02-19T22:10:36.091Z,10.88
2019-02-19T22:13:05.730Z,10.15
2019-02-19T22:15:35.313Z,9.93
2019-02-19T22:18:04.877Z,8.58
2019-02-19T22:20:59.256Z,10.13
2019-02-19T22:23:28.882Z,9.43
2019-02-19T22:25:58.347Z,9.60
2019-02-19T22:28:27.860Z,9.38
2019-02-19T22:30:58.578Z,11.85
2019-02-19T22:33:28.518Z,9.10
2019-02-19T22:35:58.105Z,10.58
2019-02-19T22:38:29.884Z,10.18
2019-02-19T22:40:59.383Z,16.30
2019-02-19T22:43:28.937Z,9.98
2019-02-19T22:45:58.492Z,19.80
2019-02-19T22:48:28.075Z,10.30
2019-02-19T22:50:57.764Z,12.25
2019-02-19T22:53:55.057Z,12.85
2019-02-19T22:56:30.306Z,9.63
2019-02-19T22:59:01.315Z,11.68
2019-02-19T23:01:49.956Z,9.83
2019-02-19T23:04:19.542Z,17.50
2019-02-19T23:06:49.047Z,12.78
2019-02-19T23:09:18.587Z,9.93
2019-02-19T23:11:48.465Z,8.10
2019-02-19T23:14:19.223Z,9.03
2019-02-19T23:16:48.738Z,10.05
2019-02-19T23:19:18.313Z,12.53
2019-02-19T23:21:47.830Z,22.05
2019-02-19T23:24:17.450Z,16.65
2019-02-19T23:26:46.985Z,27.50
2019-02-19T23:29:16.654Z,22.95
2019-02-19T23:31:46.224Z,20.50
2019-02-19T23:34:15.801Z,17.87
2019-02-19T23:36:51.433Z,18.62
2019-02-19T23:39:20.944Z,16.77
2019-02-19T23:41:50.446Z,15.80
2019-02-19T23:44:19.996Z,15.15
2019-02-19T23:46:49.478Z,16.70
2019-02-19T23:49:19.390Z,13.53
2019-02-19T23:51:49.342Z,7.08
2019-02-19T23:54:18.884Z,11.03
2019-02-19T23:56:48.481Z,12.05
2019-02-19T23:59:18.123Z,9.03
